sensor_id;sensor_type;location;lat;lon;timestamp;P1;durP1;ratioP1;P2;durP2;ratioP2
71091;SDS011;58751;50.708;7.134;2023-02-15T00:01:46;36.63;;;19.80;;
71091;SDS011;58751;50.708;7.134;2023-02-15T00:04:12;39.17;;;19.70;;
71091;SDS011;58751;50.708;7.134;2023-02-15T00:06:38;29.85;;;17.85;;
71091;SDS011;58751;50.708;7.134;2023-02-15T00:09:03;31.20;;;20.67;;
71091;SDS011;58751;50.708;7.134;2023-02-15T00:11:29;35.47;;;20.67;;
71091;SDS011;58751;50.708;7.134;2023-02-15T00:13:54;32.23;;;19.23;;
71091;SDS011;58751;50.708;7.134;2023-02-15T00:16:20;31.17;;;19.00;;
71091;SDS011;58751;50.708;7.134;2023-02-15T00:18:46;33.72;;;20.38;;
71091;SDS011;58751;50.708;7.134;2023-02-15T00:21:11;35.80;;;19.70;;
71091;SDS011;58751;50.708;7.134;2023-02-15T00:23:36;30.27;;;18.60;;
71091;SDS011;58751;50.708;7.134;2023-02-15T00:26:05;31.20;;;18.83;;
71091;SDS011;58751;50.708;7.134;2023-02-15T00:28:31;29.95;;;20.13;;
71091;SDS011;58751;50.708;7.134;2023-02-15T00:31:01;39.47;;;20.97;;
71091;SDS011;58751;50.708;7.134;2023-02-15T00:33:28;26.30;;;18.10;;
71091;SDS011;58751;50.708;7.134;2023-02-15T00:35:55;35.42;;;18.75;;
71091;SDS011;58751;50.708;7.134;2023-02-15T00:38:20;35.00;;;21.25;;
71091;SDS011;58751;50.708;7.134;2023-02-15T00:40:51;35.80;;;17.73;;
71091;SDS011;58751;50.708;7.134;2023-02-15T00:43:16;34.42;;;19.80;;
71091;SDS011;58751;50.708;7.134;2023-02-15T00:45:41;32.80;;;19.27;;
71091;SDS011;58751;50.708;7.134;2023-02-15T00:48:06;35.13;;;19.67;;
71091;SDS011;58751;50.708;7.134;2023-02-15T00:50:33;35.47;;;19.87;;
71091;SDS011;58751;50.708;7.134;2023-02-15T00:52:58;42.85;;;21.98;;
71091;SDS011;58751;50.708;7.134;2023-02-15T00:55:23;29.20;;;17.30;;
71091;SDS011;58751;50.708;7.134;2023-02-15T00:57:49;37.70;;;20.37;;
71091;SDS011;58751;50.708;7.134;2023-02-15T01:00:14;33.40;;;19.50;;
71091;SDS011;58751;50.708;7.134;2023-02-15T01:02:39;34.00;;;20.73;;
71091;SDS011;58751;50.708;7.134;2023-02-15T01:05:05;34.03;;;20.17;;
71091;SDS011;58751;50.708;7.134;2023-02-15T01:07:31;34.57;;;19.03;;
71091;SDS011;58751;50.708;7.134;2023-02-15T01:09:56;34.00;;;19.35;;
71091;SDS011;58751;50.708;7.134;2023-02-15T01:12:22;36.43;;;19.20;;
71091;SDS011;58751;50.708;7.134;2023-02-15T01:14:47;36.23;;;20.20;;
71091;SDS011;58751;50.708;7.134;2023-02-15T01:17:12;34.83;;;19.97;;
71091;SDS011;58751;50.708;7.134;2023-02-15T01:19:37;34.93;;;21.40;;
71091;SDS011;58751;50.708;7.134;2023-02-15T01:22:02;34.83;;;19.63;;
71091;SDS011;58751;50.708;7.134;2023-02-15T01:24:29;39.70;;;23.57;;
71091;SDS011;58751;50.708;7.134;2023-02-15T01:26:54;39.20;;;18.88;;
71091;SDS011;58751;50.708;7.134;2023-02-15T01:29:19;41.43;;;20.40;;
71091;SDS011;58751;50.708;7.134;2023-02-15T01:31:44;41.63;;;21.53;;
71091;SDS011;58751;50.708;7.134;2023-02-15T01:34:10;32.47;;;20.07;;
71091;SDS011;58751;50.708;7.134;2023-02-15T01:36:35;37.57;;;21.70;;
71091;SDS011;58751;50.708;7.134;2023-02-15T01:39:00;39.70;;;20.07;;
71091;SDS011;58751;50.708;7.134;2023-02-15T01:41:27;35.10;;;19.23;;
71091;SDS011;58751;50.708;7.134;2023-02-15T01:43:53;35.72;;;20.65;;
71091;SDS011;58751;50.708;7.134;2023-02-15T01:46:19;33.28;;;18.50;;
71091;SDS011;58751;50.708;7.134;2023-02-15T01:48:46;32.00;;;19.42;;
71091;SDS011;58751;50.708;7.134;2023-02-15T01:51:12;42.83;;;21.35;;
71091;SDS011;58751;50.708;7.134;2023-02-15T01:53:40;38.22;;;21.90;;
71091;SDS011;58751;50.708;7.134;2023-02-15T01:56:06;35.22;;;20.88;;
71091;SDS011;58751;50.708;7.134;2023-02-15T01:58:34;31.42;;;19.17;;
71091;SDS011;58751;50.708;7.134;2023-02-15T02:01:00;34.33;;;19.33;;
71091;SDS011;58751;50.708;7.134;2023-02-15T02:03:29;36.57;;;21.40;;
71091;SDS011;58751;50.708;7.134;2023-02-15T02:05:55;35.28;;;20.25;;
71091;SDS011;58751;50.708;7.134;2023-02-15T02:08:20;32.27;;;18.50;;
71091;SDS011;58751;50.708;7.134;2023-02-15T02:10:46;37.43;;;20.93;;
71091;SDS011;58751;50.708;7.134;2023-02-15T02:13:11;39.30;;;20.83;;
71091;SDS011;58751;50.708;7.134;2023-02-15T02:15:40;38.97;;;21.13;;
71091;SDS011;58751;50.708;7.134;2023-02-15T02:18:10;39.65;;;18.52;;
71091;SDS011;58751;50.708;7.134;2023-02-15T02:20:51;32.83;;;18.60;;
71091;SDS011;58751;50.708;7.134;2023-02-15T02:23:24;29.02;;;15.02;;
71091;SDS011;58751;50.708;7.134;2023-02-15T02:26:03;43.70;;;20.92;;
71091;SDS011;58751;50.708;7.134;2023-02-15T02:28:43;34.60;;;17.98;;
71091;SDS011;58751;50.708;7.134;2023-02-15T02:33:59;29.02;;;18.00;;
71091;SDS011;58751;50.708;7.134;2023-02-15T02:36:28;30.27;;;18.52;;
71091;SDS011;58751;50.708;7.134;2023-02-15T02:39:00;30.90;;;16.85;;
71091;SDS011;58751;50.708;7.134;2023-02-15T02:41:31;37.08;;;21.23;;
71091;SDS011;58751;50.708;7.134;2023-02-15T02:43:59;35.22;;;18.33;;
71091;SDS011;58751;50.708;7.134;2023-02-15T02:46:28;38.35;;;21.30;;
71091;SDS011;58751;50.708;7.134;2023-02-15T02:48:55;36.85;;;20.05;;
71091;SDS011;58751;50.708;7.134;2023-02-15T02:51:22;39.50;;;20.03;;
71091;SDS011;58751;50.708;7.134;2023-02-15T02:53:48;38.22;;;20.17;;
71091;SDS011;58751;50.708;7.134;2023-02-15T02:56:16;40.63;;;20.23;;
71091;SDS011;58751;50.708;7.134;2023-02-15T02:58:44;32.22;;;18.80;;
71091;SDS011;58751;50.708;7.134;2023-02-15T03:01:12;36.67;;;17.52;;
71091;SDS011;58751;50.708;7.134;2023-02-15T03:03:39;36.08;;;18.45;;
71091;SDS011;58751;50.708;7.134;2023-02-15T03:06:06;35.22;;;19.13;;
71091;SDS011;58751;50.708;7.134;2023-02-15T03:08:35;38.88;;;19.23;;
71091;SDS011;58751;50.708;7.134;2023-02-15T03:11:04;34.58;;;16.65;;
71091;SDS011;58751;50.708;7.134;2023-02-15T03:13:30;35.08;;;19.38;;
71091;SDS011;58751;50.708;7.134;2023-02-15T03:15:55;35.17;;;19.20;;
71091;SDS011;58751;50.708;7.134;2023-02-15T03:18:22;32.43;;;19.07;;
71091;SDS011;58751;50.708;7.134;2023-02-15T03:20:49;36.20;;;19.50;;
71091;SDS011;58751;50.708;7.134;2023-02-15T03:23:15;31.63;;;18.30;;
71091;SDS011;58751;50.708;7.134;2023-02-15T03:25:44;35.10;;;19.38;;
71091;SDS011;58751;50.708;7.134;2023-02-15T03:28:12;35.17;;;17.75;;
71091;SDS011;58751;50.708;7.134;2023-02-15T03:30:38;35.97;;;18.60;;
71091;SDS011;58751;50.708;7.134;2023-02-15T03:33:04;38.40;;;19.67;;
71091;SDS011;58751;50.708;7.134;2023-02-15T03:35:33;29.48;;;15.15;;
71091;SDS011;58751;50.708;7.134;2023-02-15T03:37:59;36.20;;;20.00;;
71091;SDS011;58751;50.708;7.134;2023-02-15T03:40:26;31.88;;;17.45;;
71091;SDS011;58751;50.708;7.134;2023-02-15T03:42:55;37.95;;;20.85;;
71091;SDS011;58751;50.708;7.134;2023-02-15T03:45:24;37.55;;;19.02;;
71091;SDS011;58751;50.708;7.134;2023-02-15T03:47:50;37.50;;;20.73;;
71091;SDS011;58751;50.708;7.134;2023-02-15T03:50:18;42.30;;;20.38;;
71091;SDS011;58751;50.708;7.134;2023-02-15T03:52:43;34.20;;;19.45;;
71091;SDS011;58751;50.708;7.134;2023-02-15T03:55:09;35.20;;;21.07;;
71091;SDS011;58751;50.708;7.134;2023-02-15T03:57:34;36.80;;;18.40;;
71091;SDS011;58751;50.708;7.134;2023-02-15T04:00:02;37.08;;;20.60;;
71091;SDS011;58751;50.708;7.134;2023-02-15T04:02:29;32.65;;;17.85;;
71091;SDS011;58751;50.708;7.134;2023-02-15T04:04:59;36.80;;;18.45;;
71091;SDS011;58751;50.708;7.134;2023-02-15T04:07:24;28.80;;;16.97;;
71091;SDS011;58751;50.708;7.134;2023-02-15T04:09:49;34.33;;;19.40;;
71091;SDS011;58751;50.708;7.134;2023-02-15T04:12:14;31.23;;;16.30;;
71091;SDS011;58751;50.708;7.134;2023-02-15T04:14:39;32.60;;;19.03;;
71091;SDS011;58751;50.708;7.134;2023-02-15T04:17:06;34.13;;;18.00;;
71091;SDS011;58751;50.708;7.134;2023-02-15T04:19:32;36.75;;;20.13;;
71091;SDS011;58751;50.708;7.134;2023-02-15T04:21:57;31.47;;;18.17;;
71091;SDS011;58751;50.708;7.134;2023-02-15T04:24:22;33.70;;;19.30;;
71091;SDS011;58751;50.708;7.134;2023-02-15T04:26:47;35.23;;;17.63;;
71091;SDS011;58751;50.708;7.134;2023-02-15T04:29:13;36.50;;;19.00;;
71091;SDS011;58751;50.708;7.134;2023-02-15T04:31:38;37.73;;;17.43;;
71091;SDS011;58751;50.708;7.134;2023-02-15T04:34:04;28.90;;;17.10;;
71091;SDS011;58751;50.708;7.134;2023-02-15T04:36:30;37.58;;;18.50;;
71091;SDS011;58751;50.708;7.134;2023-02-15T04:38:55;38.87;;;19.20;;
71091;SDS011;58751;50.708;7.134;2023-02-15T04:41:20;35.67;;;16.73;;
71091;SDS011;58751;50.708;7.134;2023-02-15T04:43:45;38.83;;;20.73;;
71091;SDS011;58751;50.708;7.134;2023-02-15T04:46:10;43.00;;;21.17;;
71091;SDS011;58751;50.708;7.134;2023-02-15T04:48:36;43.93;;;20.30;;
71091;SDS011;58751;50.708;7.134;2023-02-15T04:51:06;37.10;;;17.80;;
71091;SDS011;58751;50.708;7.134;2023-02-15T04:53:31;32.75;;;16.80;;
71091;SDS011;58751;50.708;7.134;2023-02-15T04:55:56;32.83;;;18.93;;
71091;SDS011;58751;50.708;7.134;2023-02-15T04:58:21;34.20;;;19.43;;
71091;SDS011;58751;50.708;7.134;2023-02-15T05:00:46;35.37;;;19.10;;
71091;SDS011;58751;50.708;7.134;2023-02-15T05:03:12;33.73;;;18.53;;
71091;SDS011;58751;50.708;7.134;2023-02-15T05:05:37;38.67;;;19.57;;
71091;SDS011;58751;50.708;7.134;2023-02-15T05:08:03;35.83;;;19.57;;
71091;SDS011;58751;50.708;7.134;2023-02-15T05:10:29;33.30;;;17.65;;
71091;SDS011;58751;50.708;7.134;2023-02-15T05:12:54;37.07;;;20.00;;
71091;SDS011;58751;50.708;7.134;2023-02-15T05:15:19;35.13;;;17.27;;
71091;SDS011;58751;50.708;7.134;2023-02-15T05:17:44;34.20;;;18.97;;
71091;SDS011;58751;50.708;7.134;2023-02-15T05:20:10;35.33;;;15.37;;
71091;SDS011;58751;50.708;7.134;2023-02-15T05:22:35;33.17;;;17.23;;
71091;SDS011;58751;50.708;7.134;2023-02-15T05:25:01;32.30;;;19.07;;
71091;SDS011;58751;50.708;7.134;2023-02-15T05:27:27;35.88;;;18.65;;
71091;SDS011;58751;50.708;7.134;2023-02-15T05:29:52;24.03;;;14.30;;
71091;SDS011;58751;50.708;7.134;2023-02-15T05:32:17;35.50;;;18.23;;
71091;SDS011;58751;50.708;7.134;2023-02-15T05:34:42;31.23;;;18.40;;
71091;SDS011;58751;50.708;7.134;2023-02-15T05:37:07;31.00;;;15.33;;
71091;SDS011;58751;50.708;7.134;2023-02-15T05:39:33;36.67;;;18.90;;
71091;SDS011;58751;50.708;7.134;2023-02-15T05:41:59;35.50;;;18.30;;
71091;SDS011;58751;50.708;7.134;2023-02-15T05:44:25;27.27;;;14.70;;
71091;SDS011;58751;50.708;7.134;2023-02-15T05:46:50;30.67;;;17.70;;
71091;SDS011;58751;50.708;7.134;2023-02-15T05:49:15;29.97;;;18.37;;
71091;SDS011;58751;50.708;7.134;2023-02-15T05:51:40;32.00;;;16.87;;
71091;SDS011;58751;50.708;7.134;2023-02-15T05:54:05;32.30;;;18.20;;
71091;SDS011;58751;50.708;7.134;2023-02-15T05:56:31;34.27;;;18.83;;
71091;SDS011;58751;50.708;7.134;2023-02-15T05:58:57;36.50;;;18.60;;
71091;SDS011;58751;50.708;7.134;2023-02-15T06:01:22;32.33;;;16.35;;
71091;SDS011;58751;50.708;7.134;2023-02-15T06:03:48;35.23;;;17.13;;
71091;SDS011;58751;50.708;7.134;2023-02-15T06:06:13;27.93;;;16.07;;
71091;SDS011;58751;50.708;7.134;2023-02-15T06:08:38;30.20;;;17.40;;
71091;SDS011;58751;50.708;7.134;2023-02-15T06:11:04;43.80;;;19.20;;
71091;SDS011;58751;50.708;7.134;2023-02-15T06:13:29;31.30;;;17.77;;
71091;SDS011;58751;50.708;7.134;2023-02-15T06:15:56;34.70;;;17.07;;
71091;SDS011;58751;50.708;7.134;2023-02-15T06:18:21;30.33;;;16.23;;
71091;SDS011;58751;50.708;7.134;2023-02-15T06:20:47;34.47;;;18.80;;
71091;SDS011;58751;50.708;7.134;2023-02-15T06:23:12;27.07;;;15.23;;
71091;SDS011;58751;50.708;7.134;2023-02-15T06:25:38;32.57;;;16.17;;
71091;SDS011;58751;50.708;7.134;2023-02-15T06:28:03;32.77;;;16.40;;
71091;SDS011;58751;50.708;7.134;2023-02-15T06:30:28;25.07;;;15.80;;
71091;SDS011;58751;50.708;7.134;2023-02-15T06:32:55;26.67;;;15.10;;
71091;SDS011;58751;50.708;7.134;2023-02-15T06:35:20;24.67;;;14.20;;
71091;SDS011;58751;50.708;7.134;2023-02-15T06:37:45;31.63;;;17.97;;
71091;SDS011;58751;50.708;7.134;2023-02-15T06:40:11;30.63;;;16.73;;
71091;SDS011;58751;50.708;7.134;2023-02-15T06:42:36;31.90;;;16.13;;
71091;SDS011;58751;50.708;7.134;2023-02-15T06:45:01;29.07;;;17.20;;
71091;SDS011;58751;50.708;7.134;2023-02-15T06:47:27;26.67;;;16.30;;
71091;SDS011;58751;50.708;7.134;2023-02-15T06:49:53;31.07;;;16.20;;
71091;SDS011;58751;50.708;7.134;2023-02-15T06:52:18;33.15;;;17.23;;
71091;SDS011;58751;50.708;7.134;2023-02-15T06:54:43;29.90;;;18.20;;
71091;SDS011;58751;50.708;7.134;2023-02-15T06:57:09;28.63;;;17.50;;
71091;SDS011;58751;50.708;7.134;2023-02-15T06:59:34;28.60;;;15.27;;
71091;SDS011;58751;50.708;7.134;2023-02-15T07:01:59;29.30;;;16.97;;
71091;SDS011;58751;50.708;7.134;2023-02-15T07:04:24;26.83;;;15.10;;
71091;SDS011;58751;50.708;7.134;2023-02-15T07:06:51;26.70;;;17.33;;
71091;SDS011;58751;50.708;7.134;2023-02-15T07:09:16;24.63;;;16.33;;
71091;SDS011;58751;50.708;7.134;2023-02-15T07:11:41;23.80;;;14.47;;
71091;SDS011;58751;50.708;7.134;2023-02-15T07:14:06;29.37;;;16.50;;
71091;SDS011;58751;50.708;7.134;2023-02-15T07:16:32;27.90;;;15.90;;
71091;SDS011;58751;50.708;7.134;2023-02-15T07:18:57;30.53;;;14.47;;
71091;SDS011;58751;50.708;7.134;2023-02-15T07:21:22;25.83;;;14.23;;
71091;SDS011;58751;50.708;7.134;2023-02-15T07:23:49;27.20;;;15.40;;
71091;SDS011;58751;50.708;7.134;2023-02-15T07:26:14;30.70;;;15.45;;
71091;SDS011;58751;50.708;7.134;2023-02-15T07:28:39;22.50;;;12.00;;
71091;SDS011;58751;50.708;7.134;2023-02-15T07:31:04;29.83;;;13.43;;
71091;SDS011;58751;50.708;7.134;2023-02-15T07:33:30;25.30;;;14.17;;
71091;SDS011;58751;50.708;7.134;2023-02-15T07:35:56;31.80;;;16.30;;
71091;SDS011;58751;50.708;7.134;2023-02-15T07:38:21;25.77;;;13.25;;
71091;SDS011;58751;50.708;7.134;2023-02-15T07:40:48;24.50;;;14.80;;
71091;SDS011;58751;50.708;7.134;2023-02-15T07:43:13;14.70;;;8.23;;
71091;SDS011;58751;50.708;7.134;2023-02-15T07:45:39;22.93;;;13.53;;
71091;SDS011;58751;50.708;7.134;2023-02-15T07:48:04;21.90;;;12.67;;
71091;SDS011;58751;50.708;7.134;2023-02-15T07:50:30;18.30;;;11.23;;
71091;SDS011;58751;50.708;7.134;2023-02-15T07:52:55;17.97;;;10.60;;
71091;SDS011;58751;50.708;7.134;2023-02-15T07:55:20;18.33;;;11.20;;
71091;SDS011;58751;50.708;7.134;2023-02-15T07:57:48;18.37;;;10.97;;
71091;SDS011;58751;50.708;7.134;2023-02-15T08:00:13;17.05;;;10.40;;
71091;SDS011;58751;50.708;7.134;2023-02-15T08:02:39;18.70;;;11.13;;
71091;SDS011;58751;50.708;7.134;2023-02-15T08:05:04;20.30;;;12.20;;
71091;SDS011;58751;50.708;7.134;2023-02-15T08:07:30;15.00;;;9.70;;
71091;SDS011;58751;50.708;7.134;2023-02-15T08:09:55;16.03;;;9.80;;
71091;SDS011;58751;50.708;7.134;2023-02-15T08:12:20;17.27;;;11.23;;
71091;SDS011;58751;50.708;7.134;2023-02-15T08:14:47;17.17;;;11.27;;
71091;SDS011;58751;50.708;7.134;2023-02-15T08:17:12;17.85;;;10.85;;
71091;SDS011;58751;50.708;7.134;2023-02-15T08:19:37;13.07;;;9.30;;
71091;SDS011;58751;50.708;7.134;2023-02-15T08:22:03;17.20;;;12.00;;
71091;SDS011;58751;50.708;7.134;2023-02-15T08:24:29;18.00;;;11.95;;
71091;SDS011;58751;50.708;7.134;2023-02-15T08:26:54;18.30;;;12.90;;
71091;SDS011;58751;50.708;7.134;2023-02-15T08:29:20;20.37;;;11.07;;
71091;SDS011;58751;50.708;7.134;2023-02-15T08:31:47;13.20;;;8.97;;
71091;SDS011;58751;50.708;7.134;2023-02-15T08:34:13;15.55;;;11.50;;
71091;SDS011;58751;50.708;7.134;2023-02-15T08:36:39;16.73;;;10.18;;
71091;SDS011;58751;50.708;7.134;2023-02-15T08:39:05;14.97;;;9.77;;
71091;SDS011;58751;50.708;7.134;2023-02-15T08:41:31;18.60;;;11.15;;
71091;SDS011;58751;50.708;7.134;2023-02-15T08:43:57;12.50;;;9.60;;
71091;SDS011;58751;50.708;7.134;2023-02-15T08:46:23;17.95;;;11.60;;
71091;SDS011;58751;50.708;7.134;2023-02-15T08:48:50;16.50;;;11.77;;
71091;SDS011;58751;50.708;7.134;2023-02-15T08:51:16;14.57;;;9.73;;
71091;SDS011;58751;50.708;7.134;2023-02-15T08:53:42;14.80;;;10.48;;
71091;SDS011;58751;50.708;7.134;2023-02-15T08:56:08;15.65;;;10.88;;
71091;SDS011;58751;50.708;7.134;2023-02-15T08:58:34;15.27;;;10.47;;
71091;SDS011;58751;50.708;7.134;2023-02-15T09:00:59;15.80;;;10.67;;
71091;SDS011;58751;50.708;7.134;2023-02-15T09:03:24;13.93;;;10.10;;
71091;SDS011;58751;50.708;7.134;2023-02-15T09:05:53;14.83;;;9.57;;
71091;SDS011;58751;50.708;7.134;2023-02-15T09:08:21;13.20;;;9.55;;
71091;SDS011;58751;50.708;7.134;2023-02-15T09:10:46;16.90;;;9.90;;
71091;SDS011;58751;50.708;7.134;2023-02-15T09:13:11;15.00;;;10.20;;
71091;SDS011;58751;50.708;7.134;2023-02-15T09:15:36;15.17;;;10.73;;
71091;SDS011;58751;50.708;7.134;2023-02-15T09:18:02;13.27;;;10.43;;
71091;SDS011;58751;50.708;7.134;2023-02-15T09:20:27;18.97;;;11.83;;
71091;SDS011;58751;50.708;7.134;2023-02-15T09:22:53;18.17;;;10.70;;
71091;SDS011;58751;50.708;7.134;2023-02-15T09:25:19;20.67;;;12.20;;
71091;SDS011;58751;50.708;7.134;2023-02-15T09:27:44;15.07;;;9.73;;
71091;SDS011;58751;50.708;7.134;2023-02-15T09:30:09;13.47;;;10.53;;
71091;SDS011;58751;50.708;7.134;2023-02-15T09:32:35;18.73;;;9.87;;
71091;SDS011;58751;50.708;7.134;2023-02-15T09:35:00;15.57;;;11.50;;
71091;SDS011;58751;50.708;7.134;2023-02-15T09:37:25;14.23;;;10.40;;
71091;SDS011;58751;50.708;7.134;2023-02-15T09:39:52;18.10;;;12.30;;
71091;SDS011;58751;50.708;7.134;2023-02-15T09:45:09;18.55;;;11.20;;
71091;SDS011;58751;50.708;7.134;2023-02-15T09:50:37;14.45;;;11.68;;
71091;SDS011;58751;50.708;7.134;2023-02-15T09:53:16;18.95;;;12.00;;
71091;SDS011;58751;50.708;7.134;2023-02-15T09:55:48;14.95;;;10.35;;
71091;SDS011;58751;50.708;7.134;2023-02-15T09:58:17;19.30;;;12.02;;
71091;SDS011;58751;50.708;7.134;2023-02-15T10:00:46;15.65;;;10.88;;
71091;SDS011;58751;50.708;7.134;2023-02-15T10:03:16;16.40;;;11.10;;
71091;SDS011;58751;50.708;7.134;2023-02-15T10:05:48;15.95;;;11.88;;
71091;SDS011;58751;50.708;7.134;2023-02-15T10:08:20;17.63;;;11.20;;
71091;SDS011;58751;50.708;7.134;2023-02-15T10:10:48;14.90;;;11.65;;
71091;SDS011;58751;50.708;7.134;2023-02-15T10:13:22;14.43;;;10.60;;
71091;SDS011;58751;50.708;7.134;2023-02-15T10:15:53;16.42;;;10.68;;
71091;SDS011;58751;50.708;7.134;2023-02-15T10:21:04;13.95;;;10.77;;
71091;SDS011;58751;50.708;7.134;2023-02-15T10:23:45;18.55;;;12.57;;
71091;SDS011;58751;50.708;7.134;2023-02-15T10:26:17;13.50;;;10.75;;
71091;SDS011;58751;50.708;7.134;2023-02-15T10:28:45;17.45;;;11.27;;
71091;SDS011;58751;50.708;7.134;2023-02-15T10:31:12;16.17;;;11.05;;
71091;SDS011;58751;50.708;7.134;2023-02-15T10:33:41;16.65;;;12.25;;
71091;SDS011;58751;50.708;7.134;2023-02-15T10:36:11;19.10;;;10.87;;
71091;SDS011;58751;50.708;7.134;2023-02-15T10:38:40;18.73;;;11.43;;
71091;SDS011;58751;50.708;7.134;2023-02-15T10:41:10;17.45;;;11.82;;
71091;SDS011;58751;50.708;7.134;2023-02-15T10:43:49;15.82;;;11.18;;
71091;SDS011;58751;50.708;7.134;2023-02-15T10:46:24;16.80;;;12.85;;
71091;SDS011;58751;50.708;7.134;2023-02-15T10:49:04;18.13;;;12.10;;
71091;SDS011;58751;50.708;7.134;2023-02-15T10:51:38;12.55;;;11.25;;
71091;SDS011;58751;50.708;7.134;2023-02-15T10:54:06;17.27;;;10.73;;
71091;SDS011;58751;50.708;7.134;2023-02-15T10:56:35;16.45;;;11.35;;
71091;SDS011;58751;50.708;7.134;2023-02-15T11:01:43;18.65;;;12.07;;
71091;SDS011;58751;50.708;7.134;2023-02-15T11:07:06;17.50;;;12.30;;
71091;SDS011;58751;50.708;7.134;2023-02-15T11:09:36;14.77;;;11.48;;
71091;SDS011;58751;50.708;7.134;2023-02-15T11:12:02;14.80;;;11.02;;
71091;SDS011;58751;50.708;7.134;2023-02-15T11:14:34;15.52;;;10.50;;
71091;SDS011;58751;50.708;7.134;2023-02-15T11:17:04;18.95;;;12.00;;
71091;SDS011;58751;50.708;7.134;2023-02-15T11:19:31;16.50;;;12.02;;
71091;SDS011;58751;50.708;7.134;2023-02-15T11:21:57;14.40;;;11.20;;
71091;SDS011;58751;50.708;7.134;2023-02-15T11:24:24;14.63;;;11.57;;
71091;SDS011;58751;50.708;7.134;2023-02-15T11:26:51;15.88;;;11.20;;
71091;SDS011;58751;50.708;7.134;2023-02-15T11:29:21;12.50;;;10.10;;
71091;SDS011;58751;50.708;7.134;2023-02-15T11:31:47;14.20;;;10.75;;
71091;SDS011;58751;50.708;7.134;2023-02-15T11:34:18;17.25;;;11.52;;
71091;SDS011;58751;50.708;7.134;2023-02-15T11:36:45;14.18;;;10.80;;
71091;SDS011;58751;50.708;7.134;2023-02-15T11:39:12;15.35;;;10.52;;
71091;SDS011;58751;50.708;7.134;2023-02-15T11:41:40;17.50;;;11.90;;
71091;SDS011;58751;50.708;7.134;2023-02-15T11:44:06;14.65;;;11.15;;
71091;SDS011;58751;50.708;7.134;2023-02-15T11:46:33;13.75;;;10.50;;
71091;SDS011;58751;50.708;7.134;2023-02-15T11:48:58;14.67;;;11.80;;
71091;SDS011;58751;50.708;7.134;2023-02-15T11:51:25;15.37;;;11.90;;
71091;SDS011;58751;50.708;7.134;2023-02-15T11:53:52;14.07;;;11.40;;
71091;SDS011;58751;50.708;7.134;2023-02-15T11:56:18;19.70;;;11.87;;
71091;SDS011;58751;50.708;7.134;2023-02-15T11:58:44;12.43;;;9.80;;
71091;SDS011;58751;50.708;7.134;2023-02-15T12:01:11;14.00;;;10.73;;
71091;SDS011;58751;50.708;7.134;2023-02-15T12:03:42;13.38;;;10.07;;
71091;SDS011;58751;50.708;7.134;2023-02-15T12:06:11;13.13;;;10.77;;
71091;SDS011;58751;50.708;7.134;2023-02-15T12:08:40;12.30;;;10.88;;
71091;SDS011;58751;50.708;7.134;2023-02-15T12:11:07;16.73;;;10.98;;
71091;SDS011;58751;50.708;7.134;2023-02-15T12:13:34;14.68;;;11.82;;
71091;SDS011;58751;50.708;7.134;2023-02-15T12:16:04;15.47;;;11.50;;
71091;SDS011;58751;50.708;7.134;2023-02-15T12:18:36;11.20;;;9.70;;
71091;SDS011;58751;50.708;7.134;2023-02-15T12:21:03;15.18;;;10.80;;
71091;SDS011;58751;50.708;7.134;2023-02-15T12:23:28;15.18;;;11.18;;
71091;SDS011;58751;50.708;7.134;2023-02-15T12:25:55;12.10;;;10.80;;
71091;SDS011;58751;50.708;7.134;2023-02-15T12:28:23;15.82;;;10.45;;
71091;SDS011;58751;50.708;7.134;2023-02-15T12:30:49;12.45;;;10.48;;
71091;SDS011;58751;50.708;7.134;2023-02-15T12:33:16;13.80;;;9.87;;
71091;SDS011;58751;50.708;7.134;2023-02-15T12:35:42;14.68;;;10.80;;
71091;SDS011;58751;50.708;7.134;2023-02-15T12:38:21;13.60;;;10.53;;
71091;SDS011;58751;50.708;7.134;2023-02-15T12:40:54;13.52;;;9.63;;
71091;SDS011;58751;50.708;7.134;2023-02-15T12:43:25;15.77;;;10.88;;
71091;SDS011;58751;50.708;7.134;2023-02-15T12:45:51;12.32;;;9.90;;
71091;SDS011;58751;50.708;7.134;2023-02-15T12:48:17;15.00;;;10.40;;
71091;SDS011;58751;50.708;7.134;2023-02-15T12:50:43;12.45;;;11.10;;
71091;SDS011;58751;50.708;7.134;2023-02-15T12:53:13;15.43;;;12.27;;
71091;SDS011;58751;50.708;7.134;2023-02-15T12:55:38;15.45;;;11.35;;
71091;SDS011;58751;50.708;7.134;2023-02-15T12:58:15;12.43;;;10.18;;
71091;SDS011;58751;50.708;7.134;2023-02-15T13:00:42;13.70;;;10.10;;
71091;SDS011;58751;50.708;7.134;2023-02-15T13:03:14;14.77;;;10.68;;
71091;SDS011;58751;50.708;7.134;2023-02-15T13:05:40;13.30;;;10.90;;
71091;SDS011;58751;50.708;7.134;2023-02-15T13:08:09;16.50;;;10.95;;
71091;SDS011;58751;50.708;7.134;2023-02-15T13:10:36;16.40;;;11.23;;
71091;SDS011;58751;50.708;7.134;2023-02-15T13:13:02;13.35;;;9.25;;
71091;SDS011;58751;50.708;7.134;2023-02-15T13:15:34;14.73;;;10.27;;
71091;SDS011;58751;50.708;7.134;2023-02-15T13:18:01;13.45;;;10.15;;
71091;SDS011;58751;50.708;7.134;2023-02-15T13:20:27;12.57;;;10.00;;
71091;SDS011;58751;50.708;7.134;2023-02-15T13:22:53;13.07;;;10.10;;
71091;SDS011;58751;50.708;7.134;2023-02-15T13:25:20;12.85;;;9.85;;
71091;SDS011;58751;50.708;7.134;2023-02-15T13:27:48;15.63;;;11.70;;
71091;SDS011;58751;50.708;7.134;2023-02-15T13:30:24;13.82;;;10.00;;
71091;SDS011;58751;50.708;7.134;2023-02-15T13:32:51;14.00;;;9.98;;
71091;SDS011;58751;50.708;7.134;2023-02-15T13:35:18;16.02;;;11.15;;
71091;SDS011;58751;50.708;7.134;2023-02-15T13:37:59;12.90;;;10.38;;
71091;SDS011;58751;50.708;7.134;2023-02-15T13:40:29;16.48;;;11.07;;
71091;SDS011;58751;50.708;7.134;2023-02-15T13:42:58;14.13;;;9.23;;
71091;SDS011;58751;50.708;7.134;2023-02-15T13:45:32;12.13;;;9.60;;
71091;SDS011;58751;50.708;7.134;2023-02-15T13:48:00;14.50;;;9.80;;
71091;SDS011;58751;50.708;7.134;2023-02-15T13:50:34;14.68;;;10.32;;
71091;SDS011;58751;50.708;7.134;2023-02-15T13:53:10;13.23;;;10.15;;
71091;SDS011;58751;50.708;7.134;2023-02-15T13:55:37;12.43;;;9.05;;
71091;SDS011;58751;50.708;7.134;2023-02-15T13:58:14;12.60;;;10.90;;
71091;SDS011;58751;50.708;7.134;2023-02-15T14:00:44;12.38;;;10.80;;
71091;SDS011;58751;50.708;7.134;2023-02-15T14:03:19;13.13;;;10.85;;
71091;SDS011;58751;50.708;7.134;2023-02-15T14:06:05;12.95;;;9.70;;
71091;SDS011;58751;50.708;7.134;2023-02-15T14:08:37;15.77;;;11.63;;
71091;SDS011;58751;50.708;7.134;2023-02-15T14:11:05;12.80;;;9.48;;
71091;SDS011;58751;50.708;7.134;2023-02-15T14:16:16;14.82;;;10.52;;
71091;SDS011;58751;50.708;7.134;2023-02-15T14:18:46;15.68;;;10.63;;
71091;SDS011;58751;50.708;7.134;2023-02-15T14:21:15;14.10;;;11.50;;
71091;SDS011;58751;50.708;7.134;2023-02-15T14:23:42;17.35;;;13.32;;
71091;SDS011;58751;50.708;7.134;2023-02-15T14:26:09;17.95;;;11.23;;
71091;SDS011;58751;50.708;7.134;2023-02-15T14:28:37;12.40;;;10.45;;
71091;SDS011;58751;50.708;7.134;2023-02-15T14:31:06;14.82;;;10.45;;
71091;SDS011;58751;50.708;7.134;2023-02-15T14:33:35;14.57;;;11.07;;
71091;SDS011;58751;50.708;7.134;2023-02-15T14:36:01;14.18;;;11.05;;
71091;SDS011;58751;50.708;7.134;2023-02-15T14:38:33;14.10;;;10.38;;
71091;SDS011;58751;50.708;7.134;2023-02-15T14:41:01;14.55;;;11.77;;
71091;SDS011;58751;50.708;7.134;2023-02-15T14:46:20;12.98;;;10.65;;